createdAt,value
2022-12-23T00:00:00.407Z,10.27
2022-12-23T00:05:00.464Z,10.27
2022-12-23T00:10:00.772Z,10.27
2022-12-23T00:15:00.419Z,10.27
2022-12-23T00:20:00.561Z,10.27
2022-12-23T00:25:00.498Z,10.27
2022-12-23T00:30:00.499Z,10.13
2022-12-23T00:35:00.374Z,10.23
2022-12-23T00:40:07.919Z,10.23
2022-12-23T00:45:00.345Z,10.23
2022-12-23T00:50:00.554Z,10.23
2022-12-23T00:55:00.604Z,10.23
2022-12-23T01:00:00.547Z,10.23
2022-12-23T01:05:00.401Z,9.7
2022-12-23T01:10:00.616Z,9.7
2022-12-23T01:15:00.507Z,9.7
2022-12-23T01:20:00.546Z,9.7
2022-12-23T01:25:00.602Z,9.84
2022-12-23T01:30:00.433Z,9.84
2022-12-23T01:35:00.539Z,9.84
2022-12-23T01:40:09.571Z,9.84
2022-12-23T01:45:00.393Z,9.55
2022-12-23T01:50:00.603Z,9.55
2022-12-23T01:55:00.633Z,9.55
2022-12-23T02:00:00.420Z,9.55
2022-12-23T02:05:00.576Z,9.55
2022-12-23T02:10:00.543Z,9.55
2022-12-23T02:15:00.626Z,9.55
2022-12-23T02:20:00.440Z,9.38
2022-12-23T02:25:00.578Z,9.38
2022-12-23T02:30:00.381Z,9.38
2022-12-23T02:35:00.604Z,9.38
2022-12-23T02:40:08.639Z,9.38
2022-12-23T02:45:00.398Z,9.38
2022-12-23T02:50:00.479Z,9.38
2022-12-23T02:55:00.561Z,9.72
2022-12-23T03:00:00.414Z,9.72
2022-12-23T03:05:01.273Z,9.72
2022-12-23T03:10:00.590Z,9.72
2022-12-23T03:15:00.448Z,9.72
2022-12-23T03:20:00.535Z,9.85
2022-12-23T03:25:00.618Z,9.85
2022-12-23T03:30:00.390Z,9.85
2022-12-23T03:35:00.515Z,9.85
2022-12-23T03:40:07.901Z,9.85
2022-12-23T03:50:01.533Z,10.24
2022-12-23T03:55:00.472Z,10.24
2022-12-23T04:00:00.917Z,10.24
2022-12-23T04:05:00.674Z,10.24
2022-12-23T04:10:00.806Z,9.74
2022-12-23T04:15:03.131Z,9.74
2022-12-23T04:20:00.705Z,9.45
2022-12-23T04:25:00.698Z,9.45
2022-12-23T04:30:00.911Z,9.22
2022-12-23T04:35:00.676Z,9.22
2022-12-23T04:45:01.017Z,9.22
2022-12-23T04:50:00.886Z,9.22
2022-12-23T04:55:00.739Z,9.22
2022-12-23T05:00:00.977Z,9.22
2022-12-23T05:05:00.812Z,9.22
2022-12-23T05:10:01.330Z,9.22
2022-12-23T05:15:00.864Z,9.2
2022-12-23T05:20:00.642Z,9.2
2022-12-23T05:25:00.697Z,9.78
2022-12-23T05:30:00.758Z,10.94
2022-12-23T05:35:00.701Z,11.15
2022-12-23T05:40:00.680Z,11.67
2022-12-23T05:45:01.071Z,11.67
2022-12-23T05:50:00.688Z,12.18
2022-12-23T05:55:00.735Z,12.18
2022-12-23T06:00:01.949Z,12.18
2022-12-23T06:05:00.699Z,12.18
2022-12-23T06:10:00.743Z,12.51
2022-12-23T06:15:01.049Z,12.51
2022-12-23T06:20:00.761Z,12.68
2022-12-23T06:25:00.832Z,12.68
2022-12-23T06:30:01.366Z,12.18
2022-12-23T06:35:00.669Z,12.18
2022-12-23T06:45:01.478Z,12.18
2022-12-23T06:50:00.788Z,12.18
2022-12-23T06:55:00.700Z,12.18
2022-12-23T07:00:00.909Z,12.68
2022-12-23T07:05:00.680Z,13.21
2022-12-23T07:10:00.858Z,13.36
2022-12-23T07:15:01.020Z,13.36
2022-12-23T07:20:02.145Z,13.36
2022-12-23T07:25:00.706Z,13.36
2022-12-23T07:30:00.847Z,12.32
2022-12-23T07:35:00.699Z,12.32
2022-12-23T07:45:01.144Z,12.36
2022-12-23T07:50:01.040Z,12.36
2022-12-23T07:55:00.689Z,12.09
2022-12-23T08:00:00.843Z,12.08
2022-12-23T08:05:00.816Z,12.08
2022-12-23T08:10:00.910Z,12.18
2022-12-23T08:15:01.221Z,11.64
2022-12-23T08:20:00.646Z,11.99
2022-12-23T08:25:00.782Z,12.54
2022-12-23T08:30:00.747Z,12.54
2022-12-23T08:35:00.703Z,12.54
2022-12-23T08:45:00.742Z,13.05
2022-12-23T08:50:00.448Z,12.53
2022-12-23T08:55:00.963Z,12.42
2022-12-23T09:00:00.551Z,12.42
2022-12-23T09:05:00.649Z,12.42
2022-12-23T09:10:00.555Z,12.25
2022-12-23T09:15:00.681Z,12.25
2022-12-23T09:20:00.641Z,12.25
2022-12-23T09:25:05.087Z,12.25
2022-12-23T09:30:00.729Z,12.25
2022-12-23T09:35:00.484Z,12.78
2022-12-23T09:45:00.780Z,12.93
2022-12-23T09:50:00.670Z,12.98
2022-12-23T09:55:00.467Z,12.98
2022-12-23T10:00:00.632Z,13.16
2022-12-23T10:05:00.498Z,12.66
2022-12-23T10:10:00.528Z,12.66
2022-12-23T10:15:00.772Z,12.66
2022-12-23T10:20:00.493Z,13.16
2022-12-23T10:25:00.555Z,12.66
2022-12-23T10:30:13.890Z,12.66
2022-12-23T10:35:00.491Z,12.9
2022-12-23T10:45:00.882Z,12.9
2022-12-23T10:50:00.800Z,13.41
2022-12-23T10:55:00.487Z,13.41
2022-12-23T11:00:00.735Z,13.74
2022-12-23T11:05:00.475Z,13.74
2022-12-23T11:10:00.554Z,13.74
2022-12-23T11:15:01.016Z,13.74
2022-12-23T11:20:00.475Z,13.74
2022-12-23T11:25:00.521Z,13.74
2022-12-23T11:30:00.695Z,13.69
2022-12-23T11:35:00.679Z,13.69
2022-12-23T11:40:00.504Z,13.22
2022-12-23T11:45:00.830Z,13.22
2022-12-23T11:50:00.487Z,13.22
2022-12-23T11:55:00.603Z,13.22
2022-12-23T12:00:00.628Z,13.22
2022-12-23T12:05:00.837Z,13.63
2022-12-23T12:10:00.459Z,13.63
2022-12-23T12:15:00.724Z,13.63
2022-12-23T12:20:00.487Z,13.63
2022-12-23T12:25:00.664Z,13.63
2022-12-23T12:30:06.128Z,13.63
2022-12-23T12:35:00.567Z,13.63
2022-12-23T12:40:00.547Z,13.63
2022-12-23T12:45:00.785Z,13.63
2022-12-23T12:50:00.465Z,13.63
2022-12-23T12:55:00.559Z,13.41
2022-12-23T13:00:06.071Z,13.41
2022-12-23T13:05:00.618Z,13.41
2022-12-23T13:10:00.479Z,13.41
2022-12-23T13:15:00.653Z,13.39
2022-12-23T13:20:00.478Z,13.39
2022-12-23T13:25:00.753Z,13.39
2022-12-23T13:30:02.353Z,13.39
2022-12-23T13:35:00.470Z,13.39
2022-12-23T13:45:00.901Z,13.39
2022-12-23T13:50:00.858Z,13.39
2022-12-23T13:55:00.714Z,13.39
2022-12-23T14:00:05.974Z,13.35
2022-12-23T14:05:00.679Z,13.35
2022-12-23T14:10:00.824Z,12.81
2022-12-23T14:15:00.790Z,12.88
2022-12-23T14:20:00.837Z,12.88
2022-12-23T14:25:00.735Z,12.88
2022-12-23T14:30:05.566Z,13.33
2022-12-23T14:35:00.724Z,13.33
2022-12-23T14:40:04.558Z,13.33
2022-12-23T14:45:00.841Z,13.33
2022-12-23T14:50:01.061Z,13.85
2022-12-23T14:55:29.275Z,13.94
2022-12-23T15:00:01.299Z,13.94
2022-12-23T15:05:00.872Z,13.94
2022-12-23T15:10:01.579Z,13.85
2022-12-23T15:15:00.932Z,13.85
2022-12-23T15:20:00.758Z,14.11
2022-12-23T15:25:00.802Z,14.11
2022-12-23T15:30:00.864Z,14.11
2022-12-23T15:35:00.736Z,14.11
2022-12-23T15:40:11.419Z,14.11
2022-12-23T15:45:00.876Z,14.62
2022-12-23T15:50:00.811Z,14.62
2022-12-23T15:55:00.896Z,14.62
2022-12-23T16:00:01.085Z,14.62
2022-12-23T16:05:02.828Z,14.62
2022-12-23T16:10:00.697Z,15.15
2022-12-23T16:15:00.915Z,14.86
2022-12-23T16:20:00.695Z,14.35
2022-12-23T16:25:00.812Z,13.83
2022-12-23T16:30:00.842Z,14.09
2022-12-23T16:35:00.807Z,15.2
2022-12-23T16:40:00.695Z,15.12
2022-12-23T16:45:00.951Z,14.62
2022-12-23T16:50:00.689Z,14.39
2022-12-23T16:55:00.788Z,14.87
2022-12-23T17:00:00.957Z,14.21
2022-12-23T17:05:00.686Z,14.77
2022-12-23T17:10:00.765Z,14.26
2022-12-23T17:15:00.987Z,14.26
2022-12-23T17:20:00.707Z,14.22
2022-12-23T17:25:01.247Z,14.22
2022-12-23T17:30:00.723Z,13.71
2022-12-23T17:35:00.755Z,13.57
2022-12-23T17:40:04.667Z,13.57
2022-12-23T17:45:00.965Z,13.57
2022-12-23T17:50:00.754Z,13.27
2022-12-23T17:55:00.833Z,13.3
2022-12-23T18:00:00.823Z,13.3
2022-12-23T18:05:00.787Z,13.06
2022-12-23T18:10:00.824Z,13.66
2022-12-23T18:15:00.907Z,13.66
2022-12-23T18:20:00.719Z,13.41
2022-12-23T18:25:00.867Z,12.9
2022-12-23T18:30:00.813Z,12.9
2022-12-23T18:35:00.768Z,13.96
2022-12-23T18:40:05.048Z,13.96
2022-12-23T18:45:00.866Z,13.78
2022-12-23T18:50:00.690Z,13.96
2022-12-23T18:55:00.797Z,14.31
2022-12-23T19:00:01.002Z,14.31
2022-12-23T19:05:00.686Z,14.31
2022-12-23T19:10:00.774Z,14.31
2022-12-23T19:15:02.751Z,14.31
2022-12-23T19:20:00.716Z,14.31
2022-12-23T19:25:05.806Z,14.31
2022-12-23T19:30:00.794Z,14.17
2022-12-23T19:35:00.758Z,14.17
2022-12-23T19:40:04.682Z,14.52
2022-12-23T19:45:00.907Z,14.52
2022-12-23T19:50:00.705Z,14.21
2022-12-23T19:55:00.871Z,14.21
2022-12-23T20:00:00.953Z,14.21
2022-12-23T20:05:00.726Z,14.21
2022-12-23T20:10:00.882Z,14.42
2022-12-23T20:15:00.769Z,14.42
2022-12-23T20:20:00.951Z,14.42
2022-12-23T20:25:00.933Z,14.09
2022-12-23T20:30:00.889Z,14.09
2022-12-23T20:35:00.697Z,14.53
2022-12-23T20:40:04.868Z,14.53
2022-12-23T20:45:00.828Z,14.53
2022-12-23T20:50:00.742Z,14.53
2022-12-23T20:55:00.852Z,14.53
2022-12-23T21:00:01.122Z,14.53
2022-12-23T21:05:00.801Z,14.83
2022-12-23T21:10:00.992Z,15.15
2022-12-23T21:15:00.986Z,15.34
2022-12-23T21:20:07.229Z,15.34
2022-12-23T21:25:01.077Z,14.73
2022-12-23T21:30:00.729Z,14.58
2022-12-23T21:35:00.947Z,14.58
2022-12-23T21:40:04.749Z,14.62
2022-12-23T21:45:00.895Z,14.62
2022-12-23T21:50:01.738Z,14.62
2022-12-23T21:55:00.900Z,14.62
2022-12-23T22:00:01.048Z,14.62
2022-12-23T22:05:00.739Z,14.11
2022-12-23T22:10:00.833Z,14.11
2022-12-23T22:15:04.958Z,14.11
2022-12-23T22:20:00.728Z,14.05
2022-12-23T22:25:00.839Z,14.05
2022-12-23T22:30:00.865Z,14.05
2022-12-23T22:35:00.808Z,14.14
2022-12-23T22:40:04.924Z,14.14
2022-12-23T22:45:00.809Z,13.92
2022-12-23T22:50:00.840Z,13.92
2022-12-23T22:55:00.874Z,13.92
2022-12-23T23:00:06.150Z,13.92
2022-12-23T23:05:00.830Z,13.92
2022-12-23T23:10:00.847Z,14.01
2022-12-23T23:15:00.860Z,14.01
2022-12-23T23:20:00.713Z,13.74
2022-12-23T23:25:00.811Z,13.74
2022-12-23T23:30:00.858Z,13.74
2022-12-23T23:35:05.393Z,13.74
2022-12-23T23:40:05.508Z,13.74
2022-12-23T23:45:00.836Z,14.29
2022-12-23T23:50:00.883Z,14.36
2022-12-23T23:55:00.875Z,14.26
